Sumifukumaru No.5 — JD3058 — position and weather

sailwx.info

Track history (hours):
 
Tides and Currents Weather Stations Pressure Air Temp Water Temp Dewpoint Dewpoint Depression Visibility Wind Speed Wind Dir Waves Ship Positions

Sumifukumaru No.5

Last reported at 2017-May-27 21:31 UTC. Time now 2017-May-27 22:56 UTC.
Position N 34°34' E 135°27'.

Length 75 m; draft 4.4 m.

Type: Cargo ship. MMSI: 431001371.

Date/timePositionNaut miles runAvg speedWind from/ knotsBaromVisibWave heightAir tempDewpointWater temp
2017-May-27 21:31N 34°34' E 135°27'0 0.0
2017-May-27 21:30N 34°34' E 135°27'4 8.9
2017-May-27 21:00N 34°36' E 135°22'611.8
2017-May-27 20:30N 34°35' E 135°15'612.3
2017-May-27 20:00N 34°34' E 135°08'  
2017-May-21 21:31N 34°11' E 134°48'0 8.6
2017-May-21 21:30N 34°11' E 134°48'812.6
2017-May-21 20:54N 34°13' E 134°56'512.8
2017-May-21 20:30N 34°15' E 135°02'2 3.8
2017-May-21 19:59N 34°15' E 135°05'0 0.1
2017-May-21 19:29N 34°15' E 135°05'0 0.1
2017-May-21 18:59N 34°15' E 135°05'0 0.0
2017-May-21 18:29N 34°15' E 135°05'0 0.0
2017-May-21 17:59N 34°15' E 135°05'0 0.0
2017-May-21 17:29N 34°15' E 135°05'0 0.0
2017-May-21 16:59N 34°15' E 135°05'0 0.0
2017-May-21 16:26N 34°15' E 135°05'0 0.0
2017-May-21 15:59N 34°15' E 135°05'0 0.0
2017-May-21 15:29N 34°15' E 135°05'0 0.0
2017-May-21 14:59N 34°15' E 135°05'0 0.1
2017-May-21 14:29N 34°15' E 135°05'0 0.0
2017-May-21 13:29N 34°15' E 135°05'0 0.0
2017-May-21 12:59N 34°15' E 135°05'0 0.0
2017-May-21 12:29N 34°15' E 135°05'0 0.0
2017-May-21 11:59N 34°15' E 135°05'0 0.0
2017-May-21 11:29N 34°15' E 135°05'0 0.0
2017-May-21 10:59N 34°15' E 135°05'0 0.0
2017-May-21 10:29N 34°15' E 135°05'0 0.0
2017-May-21 09:59N 34°15' E 135°05'0 0.0
2017-May-21 09:29N 34°15' E 135°05'0 0.0
2017-May-21 08:59N 34°15' E 135°05'0 0.0
2017-May-21 08:29N 34°15' E 135°05'0 0.0
2017-May-21 07:50N 34°15' E 135°05'0 0.0
2017-May-21 07:26N 34°15' E 135°05'0 0.0
2017-May-21 06:53N 34°15' E 135°05'0 0.0
2017-May-21 06:26N 34°15' E 135°05'0 0.0
2017-May-21 05:59N 34°15' E 135°05'0 0.1
2017-May-21 05:26N 34°15' E 135°05'0 0.0
2017-May-21 04:50N 34°15' E 135°05'0 0.0
2017-May-21 04:26N 34°15' E 135°05'0 0.0
2017-May-21 03:59N 34°15' E 135°05'0 0.0
2017-May-21 03:29N 34°15' E 135°05'0 0.0
2017-May-21 02:59N 34°15' E 135°05'0 0.0
2017-May-21 02:29N 34°15' E 135°05'0 0.0
2017-May-21 01:59N 34°15' E 135°05'0 0.0
2017-May-21 01:26N 34°15' E 135°05'0 0.0
2017-May-21 00:56N 34°15' E 135°05'0 0.1
2017-May-21 00:14N 34°15' E 135°05'0 0.0
2017-May-20 22:44N 34°15' E 135°05'0 0.0
2017-May-20 22:29N 34°15' E 135°05'0 0.0
2017-May-20 21:59N 34°15' E 135°05'0 0.1
2017-May-20 21:29N 34°15' E 135°05'0 0.0
2017-May-20 20:59N 34°15' E 135°05'0 0.0
2017-May-20 20:29N 34°15' E 135°05'0 0.0
2017-May-20 19:59N 34°15' E 135°05'0 0.0
2017-May-20 19:29N 34°15' E 135°05'0 0.0
2017-May-20 18:59N 34°15' E 135°05'0 0.0
2017-May-20 18:25N 34°15' E 135°05'1 3.0
2017-May-20 18:00N 34°15' E 135°03'611.5
2017-May-20 17:30N 34°20' E 135°05'612.4
2017-May-20 17:00N 34°25' E 135°10'612.7
2017-May-20 16:30N 34°30' E 135°15'713.0
2017-May-20 15:59N 34°35' E 135°21'510.5
2017-May-20 15:29N 34°35' E 135°27'0 0.1
2017-May-20 12:07N 34°35' E 135°27'0 0.0
2017-May-20 11:55N 34°35' E 135°27'0 0.0
2017-May-20 10:08N 34°35' E 135°27'0 2.0
2017-May-20 10:00N 34°35' E 135°27'1 1.8
2017-May-20 09:29N 34°34' E 135°27'0 0.0
2017-May-20 06:54N 34°34' E 135°27'1 3.0
2017-May-20 06:30N 34°35' E 135°26'5 9.4
2017-May-20 06:00N 34°34' E 135°20'611.7
2017-May-20 05:29N 34°30' E 135°15'611.6
2017-May-20 04:59N 34°26' E 135°11'1211.6
2017-May-20 03:57N 34°15' E 135°03'3 7.4
2017-May-20 03:30N 34°15' E 135°07'0 0.0
2017-May-20 03:00N 34°15' E 135°07'0 0.0
2017-May-20 02:28N 34°15' E 135°07'0 0.0
2017-May-20 01:58N 34°15' E 135°07'0 0.0
2017-May-20 01:28N 34°15' E 135°07'0 0.0
2017-May-20 00:58N 34°15' E 135°07'0 0.0
2017-May-20 00:30N 34°15' E 135°07'0 0.0
2017-May-20 00:01N 34°15' E 135°07'0 0.0
2017-May-19 23:30N 34°15' E 135°07'0 0.9
2017-May-19 23:00N 34°14' E 135°07'8 9.3
2017-May-19 22:11N 34°22' E 135°07'313.4
2017-May-19 21:55N 34°25' E 135°09'613.2
2017-May-19 21:30N 34°29' E 135°13'612.7
2017-May-19 21:00N 34°34' E 135°19'611.5
2017-May-19 20:30N 34°36' E 135°25'2 0.2
2017-May-19 08:13N 34°35' E 135°27'1 2.2
2017-May-19 07:57N 34°35' E 135°27'0 0.1
2017-May-19 07:18N 34°35' E 135°27'0 0.0
2017-May-19 07:00N 34°35' E 135°27'0 0.0
2017-May-19 05:36N 34°35' E 135°27'0 0.0
2017-May-19 05:12N 34°35' E 135°27'0 0.0
2017-May-19 01:36N 34°35' E 135°27'0 0.1
2017-May-19 01:24N 34°35' E 135°27'0 0.1
2017-May-19 00:48N 34°35' E 135°27'0 1.1
2017-May-19 00:30N 34°35' E 135°26'5 8.8
2017-May-18 23:59N 34°35' E 135°21'511.4
2017-May-18 23:30N 34°31' E 135°16'611.0
2017-May-18 23:00N 34°27' E 135°12'1310.4
2017-May-18 21:45N 34°16' E 135°03'310.9
2017-May-18 21:30N 34°15' E 135°06'1 2.0
2017-May-18 21:00N 34°15' E 135°07'0 0.0
2017-May-18 20:30N 34°15' E 135°07'0 0.0
2017-May-18 20:00N 34°15' E 135°07'0 0.0
2017-May-18 19:30N 34°15' E 135°07'0 0.0
2017-May-18 19:00N 34°15' E 135°07'0 0.0
2017-May-18 18:30N 34°15' E 135°07'0 0.0
2017-May-18 18:00N 34°15' E 135°07'0 0.0
2017-May-18 17:30N 34°15' E 135°07'0 0.0
2017-May-18 16:54N 34°15' E 135°07'0 0.0
2017-May-18 16:30N 34°15' E 135°07'0 0.1
2017-May-18 16:00N 34°15' E 135°07'0 0.0
2017-May-18 15:30N 34°15' E 135°07'0 0.0
2017-May-18 14:51N 34°15' E 135°07'0 0.0
2017-May-18 14:00N 34°15' E 135°07'2 4.4
2017-May-18 13:30N 34°15' E 135°05'0 0.0
2017-May-18 12:57N 34°15' E 135°05'0 0.0
2017-May-18 12:27N 34°15' E 135°05'0 0.0
2017-May-18 11:51N 34°15' E 135°05'0 0.0
2017-May-18 11:27N 34°15' E 135°05'0 0.0
2017-May-18 11:00N 34°15' E 135°05'0 0.1
2017-May-18 10:30N 34°15' E 135°05'0 0.1
2017-May-18 10:00N 34°15' E 135°05'0 0.0
2017-May-18 09:30N 34°15' E 135°05'0 0.0
2017-May-18 09:00N 34°15' E 135°05'0 0.0
2017-May-18 08:24N 34°15' E 135°05'0 0.0
2017-May-18 08:00N 34°15' E 135°05'0 0.0
2017-May-18 07:24N 34°15' E 135°05'0 0.0
2017-May-18 06:57N 34°15' E 135°05'0 0.0
2017-May-18 06:30N 34°15' E 135°05'0 0.0
2017-May-18 05:57N 34°15' E 135°05'0 0.0
2017-May-18 05:27N 34°15' E 135°05'0 0.0
2017-May-18 05:00N 34°15' E 135°05'0 0.0
2017-May-18 04:30N 34°15' E 135°05'0 0.0
2017-May-18 04:00N 34°15' E 135°05'0 0.0
2017-May-18 03:30N 34°15' E 135°05'0 0.1
2017-May-18 02:43N 34°15' E 135°05'0 0.2
2017-May-18 02:30N 34°15' E 135°05'0 0.1
2017-May-18 01:57N 34°15' E 135°05'0 0.0
2017-May-18 01:21N 34°15' E 135°05'0 0.0
2017-May-17 23:33N 34°15' E 135°05'0 0.1
2017-May-17 23:30N 34°15' E 135°05'0 0.0
2017-May-17 22:42N 34°15' E 135°05'0 0.0
2017-May-17 22:21N 34°15' E 135°05'0 0.0
2017-May-17 22:00N 34°15' E 135°05'  
Track history (hours):
 
Tides and Currents Weather Stations Pressure Air Temp Water Temp Dewpoint Dewpoint Depression Visibility Wind Speed Wind Dir Waves Ship Positions

Sumifukumaru No.5

Last reported at 2017-May-27 21:31 UTC. Time now 2017-May-27 22:56 UTC.
Position N 34°34' E 135°27'.

Length 75 m; draft 4.4 m.

Type: Cargo ship. MMSI: 431001371.

Date/timePositionNaut miles runAvg speedWind from/ knotsBaromVisibWave heightAir tempDewpointWater temp
2017-May-27 21:31N 34°34' E 135°27'0 0.0
2017-May-27 21:30N 34°34' E 135°27'4 8.9
2017-May-27 21:00N 34°36' E 135°22'611.8
2017-May-27 20:30N 34°35' E 135°15'612.3
2017-May-27 20:00N 34°34' E 135°08'  
2017-May-21 21:31N 34°11' E 134°48'0 8.6
2017-May-21 21:30N 34°11' E 134°48'812.6
2017-May-21 20:54N 34°13' E 134°56'512.8
2017-May-21 20:30N 34°15' E 135°02'2 3.8
2017-May-21 19:59N 34°15' E 135°05'0 0.1
2017-May-21 19:29N 34°15' E 135°05'0 0.1
2017-May-21 18:59N 34°15' E 135°05'0 0.0
2017-May-21 18:29N 34°15' E 135°05'0 0.0
2017-May-21 17:59N 34°15' E 135°05'0 0.0
2017-May-21 17:29N 34°15' E 135°05'0 0.0
2017-May-21 16:59N 34°15' E 135°05'0 0.0
2017-May-21 16:26N 34°15' E 135°05'0 0.0
2017-May-21 15:59N 34°15' E 135°05'0 0.0
2017-May-21 15:29N 34°15' E 135°05'0 0.0
2017-May-21 14:59N 34°15' E 135°05'0 0.1
2017-May-21 14:29N 34°15' E 135°05'0 0.0
2017-May-21 13:29N 34°15' E 135°05'0 0.0
2017-May-21 12:59N 34°15' E 135°05'0 0.0
2017-May-21 12:29N 34°15' E 135°05'0 0.0
2017-May-21 11:59N 34°15' E 135°05'0 0.0
2017-May-21 11:29N 34°15' E 135°05'0 0.0
2017-May-21 10:59N 34°15' E 135°05'0 0.0
2017-May-21 10:29N 34°15' E 135°05'0 0.0
2017-May-21 09:59N 34°15' E 135°05'0 0.0
2017-May-21 09:29N 34°15' E 135°05'0 0.0
2017-May-21 08:59N 34°15' E 135°05'0 0.0
2017-May-21 08:29N 34°15' E 135°05'0 0.0
2017-May-21 07:50N 34°15' E 135°05'0 0.0
2017-May-21 07:26N 34°15' E 135°05'0 0.0
2017-May-21 06:53N 34°15' E 135°05'0 0.0
2017-May-21 06:26N 34°15' E 135°05'0 0.0
2017-May-21 05:59N 34°15' E 135°05'0 0.1
2017-May-21 05:26N 34°15' E 135°05'0 0.0
2017-May-21 04:50N 34°15' E 135°05'0 0.0
2017-May-21 04:26N 34°15' E 135°05'0 0.0
2017-May-21 03:59N 34°15' E 135°05'0 0.0
2017-May-21 03:29N 34°15' E 135°05'0 0.0
2017-May-21 02:59N 34°15' E 135°05'0 0.0
2017-May-21 02:29N 34°15' E 135°05'0 0.0
2017-May-21 01:59N 34°15' E 135°05'0 0.0
2017-May-21 01:26N 34°15' E 135°05'0 0.0
2017-May-21 00:56N 34°15' E 135°05'0 0.1
2017-May-21 00:14N 34°15' E 135°05'0 0.0
2017-May-20 22:44N 34°15' E 135°05'0 0.0
2017-May-20 22:29N 34°15' E 135°05'0 0.0
2017-May-20 21:59N 34°15' E 135°05'0 0.1
2017-May-20 21:29N 34°15' E 135°05'0 0.0
2017-May-20 20:59N 34°15' E 135°05'0 0.0
2017-May-20 20:29N 34°15' E 135°05'0 0.0
2017-May-20 19:59N 34°15' E 135°05'0 0.0
2017-May-20 19:29N 34°15' E 135°05'0 0.0
2017-May-20 18:59N 34°15' E 135°05'0 0.0
2017-May-20 18:25N 34°15' E 135°05'1 3.0
2017-May-20 18:00N 34°15' E 135°03'611.5
2017-May-20 17:30N 34°20' E 135°05'612.4
2017-May-20 17:00N 34°25' E 135°10'612.7
2017-May-20 16:30N 34°30' E 135°15'713.0
2017-May-20 15:59N 34°35' E 135°21'510.5
2017-May-20 15:29N 34°35' E 135°27'0 0.1
2017-May-20 12:07N 34°35' E 135°27'0 0.0
2017-May-20 11:55N 34°35' E 135°27'0 0.0
2017-May-20 10:08N 34°35' E 135°27'0 2.0
2017-May-20 10:00N 34°35' E 135°27'1 1.8
2017-May-20 09:29N 34°34' E 135°27'0 0.0
2017-May-20 06:54N 34°34' E 135°27'1 3.0
2017-May-20 06:30N 34°35' E 135°26'5 9.4
2017-May-20 06:00N 34°34' E 135°20'611.7
2017-May-20 05:29N 34°30' E 135°15'611.6
2017-May-20 04:59N 34°26' E 135°11'1211.6
2017-May-20 03:57N 34°15' E 135°03'3 7.4
2017-May-20 03:30N 34°15' E 135°07'0 0.0
2017-May-20 03:00N 34°15' E 135°07'0 0.0
2017-May-20 02:28N 34°15' E 135°07'0 0.0
2017-May-20 01:58N 34°15' E 135°07'0 0.0
2017-May-20 01:28N 34°15' E 135°07'0 0.0
2017-May-20 00:58N 34°15' E 135°07'0 0.0
2017-May-20 00:30N 34°15' E 135°07'0 0.0
2017-May-20 00:01N 34°15' E 135°07'0 0.0
2017-May-19 23:30N 34°15' E 135°07'0 0.9
2017-May-19 23:00N 34°14' E 135°07'8 9.3
2017-May-19 22:11N 34°22' E 135°07'313.4
2017-May-19 21:55N 34°25' E 135°09'613.2
2017-May-19 21:30N 34°29' E 135°13'612.7
2017-May-19 21:00N 34°34' E 135°19'611.5
2017-May-19 20:30N 34°36' E 135°25'2 0.2
2017-May-19 08:13N 34°35' E 135°27'1 2.2
2017-May-19 07:57N 34°35' E 135°27'0 0.1
2017-May-19 07:18N 34°35' E 135°27'0 0.0
2017-May-19 07:00N 34°35' E 135°27'0 0.0
2017-May-19 05:36N 34°35' E 135°27'0 0.0
2017-May-19 05:12N 34°35' E 135°27'0 0.0
2017-May-19 01:36N 34°35' E 135°27'0 0.1
2017-May-19 01:24N 34°35' E 135°27'0 0.1
2017-May-19 00:48N 34°35' E 135°27'0 1.1
2017-May-19 00:30N 34°35' E 135°26'5 8.8
2017-May-18 23:59N 34°35' E 135°21'511.4
2017-May-18 23:30N 34°31' E 135°16'611.0
2017-May-18 23:00N 34°27' E 135°12'1310.4
2017-May-18 21:45N 34°16' E 135°03'310.9
2017-May-18 21:30N 34°15' E 135°06'1 2.0
2017-May-18 21:00N 34°15' E 135°07'0 0.0
2017-May-18 20:30N 34°15' E 135°07'0 0.0
2017-May-18 20:00N 34°15' E 135°07'0 0.0
2017-May-18 19:30N 34°15' E 135°07'0 0.0
2017-May-18 19:00N 34°15' E 135°07'0 0.0
2017-May-18 18:30N 34°15' E 135°07'0 0.0
2017-May-18 18:00N 34°15' E 135°07'0 0.0
2017-May-18 17:30N 34°15' E 135°07'0 0.0
2017-May-18 16:54N 34°15' E 135°07'0 0.0
2017-May-18 16:30N 34°15' E 135°07'0 0.1
2017-May-18 16:00N 34°15' E 135°07'0 0.0
2017-May-18 15:30N 34°15' E 135°07'0 0.0
2017-May-18 14:51N 34°15' E 135°07'0 0.0
2017-May-18 14:00N 34°15' E 135°07'2 4.4
2017-May-18 13:30N 34°15' E 135°05'0 0.0
2017-May-18 12:57N 34°15' E 135°05'0 0.0
2017-May-18 12:27N 34°15' E 135°05'0 0.0
2017-May-18 11:51N 34°15' E 135°05'0 0.0
2017-May-18 11:27N 34°15' E 135°05'0 0.0
2017-May-18 11:00N 34°15' E 135°05'0 0.1
2017-May-18 10:30N 34°15' E 135°05'0 0.1
2017-May-18 10:00N 34°15' E 135°05'0 0.0
2017-May-18 09:30N 34°15' E 135°05'0 0.0
2017-May-18 09:00N 34°15' E 135°05'0 0.0
2017-May-18 08:24N 34°15' E 135°05'0 0.0
2017-May-18 08:00N 34°15' E 135°05'0 0.0
2017-May-18 07:24N 34°15' E 135°05'0 0.0
2017-May-18 06:57N 34°15' E 135°05'0 0.0
2017-May-18 06:30N 34°15' E 135°05'0 0.0
2017-May-18 05:57N 34°15' E 135°05'0 0.0
2017-May-18 05:27N 34°15' E 135°05'0 0.0
2017-May-18 05:00N 34°15' E 135°05'0 0.0
2017-May-18 04:30N 34°15' E 135°05'0 0.0
2017-May-18 04:00N 34°15' E 135°05'0 0.0
2017-May-18 03:30N 34°15' E 135°05'0 0.1
2017-May-18 02:43N 34°15' E 135°05'0 0.2
2017-May-18 02:30N 34°15' E 135°05'0 0.1
2017-May-18 01:57N 34°15' E 135°05'0 0.0
2017-May-18 01:21N 34°15' E 135°05'0 0.0
2017-May-17 23:33N 34°15' E 135°05'0 0.1
2017-May-17 23:30N 34°15' E 135°05'0 0.0
2017-May-17 22:42N 34°15' E 135°05'0 0.0
2017-May-17 22:21N 34°15' E 135°05'0 0.0
2017-May-17 22:00N 34°15' E 135°05'  

Dump ship's entire track history